Terminal Aerodrome Forecast
Issued by NWS

Home | Current Version | Previous Version | Text Only | Print | Product List | Glossary On
Versions: 1 2 3 4 5 6 7 8 9 10 11 12
000
FTUS43 KDTX 272320
TAFYIP
TAF
KYIP 272320Z 2800/2824 VRB05KT P6SM SCT070 SCT250
     FM280400 03007KT P6SM FEW045 FEW090 SCT150
     FM281500 04011KT P6SM SCT060 BKN150=

USA.gov is the U.S. government's official web portal to all federal, state and local government web resources and services.